Main page
METAR-TAF:

METAR-TAF

Airports :

Wattay International Airport

Vientiane, Laos

latitude: 17-57N, longitude: 102-34E, elevation: 171 m

Current weather observation

The report was made 2 hours and 35 minutes ago, at 16:30 UTC
Wind 2 kt from the North/Northwest
Temperature 23°C
Humidity 73%
Pressure 1012 hPa
Visibility: 3000 m
Scattered clouds at a height of 5000 ft
mist

METAR: VLVT 281630Z 34002KT 3000 BR SCT050 23/18 Q1012 NOSIG

Time: 02:05 (19:05 UTC)

Forecast

The report was made 2 hours and 5 minutes ago, at 17:00 UTC
Forecast valid from 28 at 18 UTC to 29 at 18 UTC
Wind 4 kt from the East/Southeast
Visibility: 8000 m
Scattered clouds at a height of 5000 ft
Few clouds at a height of 20000 ft

TAF: VLVT 281700Z 2818/2918 12004KT 8000 SCT050 FEW200

Weather observations and forecasts of more than 4000 airports (METAR and TAF reports).

The available stations are represented by yellow and red dots on the map.

Hover mouse over dot to see the name of the station.

Then click to see weather observations and forecasts.

To change the map : click on the green buttons with a black cross to zoom in, on the green button with a dash to zoom out, or on the green arrows for adjacent maps.


METAR-TAF: